Time;durP1;ratioP1;P1;durP2;ratioP2;P2;SDS_P1;SDS_P2;PMS_P1;PMS_P2;Temp;Humidity;BMP_temperature;BMP_pressure;BME280_temperature;BME280_humidity;BME280_pressure;Samples;Min_cycle;Max_cycle;Signal;HPM_P1;HPM_P2
2023/03/07 00:00:43;;;;;;;39.15;13.45;;;3.20;99.90;;;;;;5042530;28;21519;-70
2023/03/07 00:03:17;;;;;;;50.58;12.85;;;3.00;99.90;;;;;;5051531;28;20037;-71
2023/03/07 00:05:43;;;;;;;30.02;12.95;;;2.90;99.90;;;;;;5046694;28;20029;-71
2023/03/07 00:08:09;;;;;;;41.08;13.48;;;2.80;99.90;;;;;;5055722;28;20776;-71
2023/03/07 00:10:35;;;;;;;27.15;11.98;;;2.80;99.90;;;;;;5052515;28;20029;-71
2023/03/07 00:13:02;;;;;;;47.80;11.55;;;2.90;99.90;;;;;;5049518;28;20040;-71
2023/03/07 00:15:29;;;;;;;27.73;12.35;;;2.90;99.90;;;;;;5048324;28;20025;-78
2023/03/07 00:17:55;;;;;;;34.47;10.75;;;2.70;99.90;;;;;;5037355;28;20063;-77
2023/03/07 00:20:21;;;;;;;83.68;12.73;;;2.60;99.90;;;;;;5051704;28;20091;-77
2023/03/07 00:22:47;;;;;;;41.78;12.30;;;2.50;99.90;;;;;;5044775;28;20036;-77
2023/03/07 00:25:13;;;;;;;40.20;12.05;;;2.40;99.90;;;;;;5050504;28;20568;-74
2023/03/07 00:27:39;;;;;;;44.67;11.93;;;2.40;99.90;;;;;;5050449;28;20064;-76
2023/03/07 00:30:06;;;;;;;62.38;12.20;;;2.40;99.90;;;;;;5050710;28;20052;-75
2023/03/07 00:32:32;;;;;;;38.05;12.07;;;2.40;99.90;;;;;;5039169;28;20040;-76
2023/03/07 00:34:59;;;;;;;39.80;11.43;;;2.40;99.90;;;;;;5050774;28;20447;-78
2023/03/07 00:37:25;;;;;;;29.02;12.32;;;2.50;99.90;;;;;;5052512;28;20551;-77
2023/03/07 00:39:50;;;;;;;23.83;11.93;;;2.60;99.90;;;;;;5055455;28;20112;-76
2023/03/07 00:42:16;;;;;;;24.92;11.35;;;2.60;99.90;;;;;;5029630;28;20046;-75
2023/03/07 00:44:42;;;;;;;19.83;11.85;;;2.60;99.90;;;;;;5049504;28;20113;-75
2023/03/07 00:47:08;;;;;;;30.50;12.07;;;2.70;99.90;;;;;;5044280;28;20032;-75
2023/03/07 00:49:33;;;;;;;23.45;12.55;;;2.60;99.90;;;;;;5040398;28;20604;-77
2023/03/07 00:51:59;;;;;;;27.85;12.82;;;2.70;99.90;;;;;;5051722;28;20040;-77
2023/03/07 00:54:25;;;;;;;45.40;12.65;;;2.60;99.90;;;;;;5052383;28;20037;-76
2023/03/07 00:56:50;;;;;;;25.85;12.43;;;2.70;99.90;;;;;;5037520;28;20074;-76
2023/03/07 00:59:16;;;;;;;46.20;12.20;;;2.60;99.90;;;;;;5049718;28;20481;-74
2023/03/07 01:01:42;;;;;;;28.85;12.90;;;2.60;99.90;;;;;;5039031;28;20041;-73
2023/03/07 01:04:08;;;;;;;19.52;12.05;;;2.50;99.90;;;;;;5021902;28;20046;-75
2023/03/07 01:06:34;;;;;;;49.55;12.98;;;2.60;99.90;;;;;;5038350;28;20040;-74
2023/03/07 01:09:03;;;;;;;24.30;12.73;;;2.60;99.90;;;;;;5041010;28;20044;-73
2023/03/07 01:11:30;;;;;;;27.48;11.88;;;2.60;99.90;;;;;;5046262;28;22106;-74
2023/03/07 01:14:02;;;;;;;56.28;12.43;;;2.60;99.90;;;;;;5045250;28;20031;-73
2023/03/07 01:16:33;;;;;;;21.73;11.77;;;2.50;99.90;;;;;;5046145;28;21706;-73
2023/03/07 01:19:02;;;;;;;41.25;11.57;;;2.50;99.90;;;;;;5050946;28;20059;-76
2023/03/07 01:21:30;;;;;;;25.48;11.07;;;2.60;99.90;;;;;;5046674;28;20072;-76
2023/03/07 01:23:56;;;;;;;25.50;10.65;;;2.50;99.90;;;;;;5047816;28;20043;-76
2023/03/07 01:26:29;;;;;;;28.77;11.77;;;2.50;99.90;;;;;;5030098;28;20044;-76
2023/03/07 01:28:56;;;;;;;31.13;11.57;;;2.50;99.90;;;;;;5046519;28;20036;-75
2023/03/07 01:31:23;;;;;;;19.55;11.80;;;2.50;99.90;;;;;;5023424;28;20036;-76
2023/03/07 01:33:50;;;;;;;20.88;12.32;;;2.50;99.90;;;;;;5039219;28;20047;-76
2023/03/07 01:36:21;;;;;;;32.47;12.30;;;2.40;99.90;;;;;;5021982;28;20053;-74
2023/03/07 01:38:47;;;;;;;40.20;11.50;;;2.40;99.90;;;;;;5043143;28;20035;-78
2023/03/07 01:41:13;;;;;;;49.88;12.10;;;2.40;99.90;;;;;;5043158;28;20040;-76
2023/03/07 01:43:39;;;;;;;50.10;12.30;;;2.30;99.90;;;;;;5040908;28;20033;-77
2023/03/07 01:46:17;;;;;;;60.72;11.70;;;2.10;99.90;;;;;;5045025;28;20036;-72
2023/03/07 01:49:08;;;;;;;58.95;10.90;;;2.00;99.90;;;;;;5040625;28;20043;-70
2023/03/07 01:51:36;;;;;;;40.65;11.60;;;1.80;99.90;;;;;;5048017;28;20472;-71
2023/03/07 01:54:04;;;;;;;17.15;11.80;;;1.70;99.90;;;;;;5044426;28;20032;-71
2023/03/07 01:56:30;;;;;;;23.27;12.25;;;1.80;99.90;;;;;;5047121;28;20072;-71
2023/03/07 01:58:56;;;;;;;18.88;11.98;;;1.90;99.90;;;;;;5043908;28;20170;-70
2023/03/07 02:01:24;;;;;;;19.35;12.20;;;1.90;99.90;;;;;;5042111;28;20534;-73
2023/03/07 02:03:55;;;;;;;21.60;11.57;;;2.00;99.90;;;;;;5040318;28;20044;-71
2023/03/07 02:06:23;;;;;;;18.83;11.98;;;2.10;99.90;;;;;;5045682;28;20062;-71
2023/03/07 02:08:51;;;;;;;24.35;12.68;;;2.10;99.90;;;;;;5035064;28;20037;-73
2023/03/07 02:11:18;;;;;;;26.38;12.82;;;2.10;99.90;;;;;;5041753;28;20032;-72
2023/03/07 02:13:43;;;;;;;25.83;13.05;;;2.10;99.90;;;;;;5040686;28;20047;-70
2023/03/07 02:16:11;;;;;;;32.83;12.45;;;2.10;99.90;;;;;;5041370;28;20040;-71
2023/03/07 02:18:44;;;;;;;29.23;11.18;;;2.20;99.90;;;;;;5037002;28;20036;-73
2023/03/07 02:21:16;;;;;;;14.63;10.68;;;2.10;99.90;;;;;;5043948;28;20101;-74
2023/03/07 02:23:52;;;;;;;31.17;11.75;;;2.10;99.90;;;;;;5044563;28;20033;-73
2023/03/07 02:26:18;;;;;;;36.30;10.88;;;2.10;99.90;;;;;;5043749;28;20056;-74
2023/03/07 02:28:46;;;;;;;15.55;11.65;;;2.10;99.90;;;;;;5035004;28;20071;-73
2023/03/07 02:31:12;;;;;;;17.88;11.20;;;2.10;99.90;;;;;;5040435;28;20083;-74
2023/03/07 02:33:38;;;;;;;24.42;12.30;;;2.10;99.90;;;;;;5047410;28;20521;-73
2023/03/07 02:36:08;;;;;;;17.30;12.05;;;2.20;99.90;;;;;;5043595;28;20041;-73
2023/03/07 02:38:37;;;;;;;16.73;11.85;;;2.10;99.90;;;;;;5042416;28;20464;-74
2023/03/07 02:41:03;;;;;;;18.83;13.00;;;2.20;99.90;;;;;;5039220;28;20032;-73
2023/03/07 02:43:29;;;;;;;21.70;10.65;;;2.20;99.90;;;;;;5044018;28;20170;-73
2023/03/07 02:45:55;;;;;;;16.88;11.30;;;2.30;99.90;;;;;;5022444;28;20107;-74
2023/03/07 02:48:20;;;;;;;24.70;11.00;;;2.20;99.90;;;;;;5032952;28;20055;-73
2023/03/07 02:50:49;;;;;;;21.63;11.63;;;2.20;99.90;;;;;;5035238;28;23783;-73
2023/03/07 02:53:15;;;;;;;16.13;10.98;;;2.20;99.90;;;;;;5038906;28;20101;-73
2023/03/07 02:55:41;;;;;;;22.98;11.23;;;2.30;99.90;;;;;;5029727;28;20048;-73
2023/03/07 02:58:06;;;;;;;19.95;11.40;;;2.20;99.90;;;;;;5046041;28;20045;-73
2023/03/07 03:00:32;;;;;;;23.20;11.65;;;2.20;99.90;;;;;;5040952;28;20041;-73
2023/03/07 03:02:58;;;;;;;17.83;11.27;;;2.20;99.90;;;;;;5050125;28;20041;-74
2023/03/07 03:05:24;;;;;;;21.17;11.57;;;2.10;99.90;;;;;;5041859;28;20035;-75
2023/03/07 03:07:49;;;;;;;14.45;11.40;;;2.20;99.90;;;;;;5041809;28;20060;-75
2023/03/07 03:10:16;;;;;;;15.82;10.95;;;2.10;99.90;;;;;;5038217;28;20097;-74
2023/03/07 03:12:42;;;;;;;14.18;10.68;;;2.10;99.90;;;;;;5041208;28;20029;-75
2023/03/07 03:15:09;;;;;;;17.08;11.20;;;2.10;99.90;;;;;;5053905;28;20040;-74
2023/03/07 03:17:34;;;;;;;30.10;11.98;;;2.10;99.90;;;;;;5054020;28;20436;-74
2023/03/07 03:20:00;;;;;;;17.30;11.43;;;2.10;99.90;;;;;;5052917;28;20029;-75
2023/03/07 03:22:26;;;;;;;15.93;11.52;;;2.00;99.90;;;;;;5051800;28;20115;-75
2023/03/07 03:24:52;;;;;;;21.10;11.68;;;1.90;99.90;;;;;;5047643;28;20120;-75
2023/03/07 03:27:17;;;;;;;16.88;11.75;;;1.90;99.90;;;;;;5052868;28;20048;-74
2023/03/07 03:29:43;;;;;;;33.47;24.88;;;1.90;99.90;;;;;;5039522;28;20103;-74
2023/03/07 03:32:09;;;;;;;29.45;16.67;;;1.90;99.90;;;;;;5051245;28;20045;-74
2023/03/07 03:34:35;;;;;;;29.50;13.90;;;1.90;99.90;;;;;;5051784;28;20102;-74
2023/03/07 03:37:00;;;;;;;19.88;12.70;;;1.90;99.90;;;;;;5053096;28;20045;-76
2023/03/07 03:39:27;;;;;;;34.90;14.68;;;1.90;99.90;;;;;;5032388;28;20223;-75
2023/03/07 03:41:53;;;;;;;30.40;13.15;;;1.90;99.90;;;;;;5043391;28;20068;-75
2023/03/07 03:44:19;;;;;;;17.95;13.00;;;1.90;99.90;;;;;;5049283;28;20127;-75
2023/03/07 03:46:47;;;;;;;18.80;11.43;;;1.80;99.90;;;;;;5051189;28;20029;-75
2023/03/07 03:49:12;;;;;;;45.88;12.13;;;1.80;99.90;;;;;;5034497;28;20040;-75
2023/03/07 03:51:38;;;;;;;16.50;11.05;;;1.80;99.90;;;;;;5043385;28;20717;-74
2023/03/07 03:54:04;;;;;;;20.30;12.23;;;1.90;99.90;;;;;;5055216;28;20036;-74
2023/03/07 03:56:29;;;;;;;15.75;12.00;;;1.90;99.90;;;;;;5049701;28;20523;-74
2023/03/07 03:58:56;;;;;;;13.98;11.13;;;1.80;99.90;;;;;;5053372;28;21585;-74
2023/03/07 04:01:24;;;;;;;20.00;10.52;;;1.80;99.90;;;;;;5053528;28;20508;-74
2023/03/07 04:03:51;;;;;;;15.77;10.82;;;1.80;99.90;;;;;;5048902;28;20037;-73
2023/03/07 04:06:23;;;;;;;11.90;9.52;;;1.90;99.90;;;;;;5047686;28;20033;-75
2023/03/07 04:08:50;;;;;;;17.90;8.88;;;2.00;99.90;;;;;;5028518;28;20517;-74
2023/03/07 04:11:16;;;;;;;22.83;9.00;;;1.90;99.90;;;;;;5053817;28;20101;-74
2023/03/07 04:13:42;;;;;;;14.05;10.20;;;1.90;99.90;;;;;;5053794;28;20708;-74
2023/03/07 04:16:08;;;;;;;20.05;10.43;;;1.90;99.90;;;;;;5055148;28;20048;-74
2023/03/07 04:18:34;;;;;;;43.28;11.20;;;1.90;99.90;;;;;;5043669;28;20025;-74
2023/03/07 04:21:00;;;;;;;70.28;11.07;;;1.90;99.90;;;;;;5054457;28;20041;-75
2023/03/07 04:23:27;;;;;;;21.92;10.48;;;1.80;99.90;;;;;;5043141;28;20032;-74
2023/03/07 04:25:58;;;;;;;17.10;10.85;;;1.80;99.90;;;;;;5037781;28;20076;-75
2023/03/07 04:28:26;;;;;;;15.90;10.02;;;1.80;99.90;;;;;;5044177;28;22392;-74
2023/03/07 04:30:52;;;;;;;27.83;10.43;;;1.80;99.90;;;;;;5050722;28;20153;-75
2023/03/07 04:33:19;;;;;;;14.10;10.38;;;1.80;99.90;;;;;;5048734;28;20385;-73
2023/03/07 04:35:47;;;;;;;15.70;10.57;;;1.80;99.90;;;;;;5049292;28;20044;-75
2023/03/07 04:38:14;;;;;;;28.05;10.65;;;1.80;99.90;;;;;;5028695;28;20518;-75
2023/03/07 04:40:40;;;;;;;24.40;10.52;;;1.70;99.90;;;;;;5052666;28;20037;-74
2023/03/07 04:43:06;;;;;;;15.43;10.35;;;1.70;99.90;;;;;;5052099;28;20512;-73
2023/03/07 04:45:35;;;;;;;20.48;9.73;;;1.70;99.90;;;;;;5049230;28;20500;-75
2023/03/07 04:48:02;;;;;;;16.52;10.13;;;1.60;99.90;;;;;;5055895;28;20651;-75
2023/03/07 04:50:28;;;;;;;48.45;10.95;;;1.70;99.90;;;;;;5052809;28;20118;-74
2023/03/07 04:52:53;;;;;;;53.20;10.52;;;1.70;99.90;;;;;;5040499;28;20029;-73
2023/03/07 04:55:19;;;;;;;34.05;10.18;;;1.50;99.90;;;;;;5048239;28;20037;-74
2023/03/07 04:57:45;;;;;;;46.17;10.60;;;1.40;99.90;;;;;;5052707;28;20062;-73
2023/03/07 05:00:12;;;;;;;20.95;10.43;;;1.30;99.90;;;;;;5051830;28;20170;-73
2023/03/07 05:02:38;;;;;;;17.63;11.63;;;1.20;99.90;;;;;;5050643;28;20036;-74
2023/03/07 05:05:04;;;;;;;16.63;11.50;;;1.20;99.90;;;;;;5052653;28;20078;-73
2023/03/07 05:07:31;;;;;;;13.77;10.45;;;1.30;99.90;;;;;;5036499;28;20647;-74
2023/03/07 05:09:56;;;;;;;13.68;10.57;;;1.30;99.90;;;;;;5051630;28;20035;-73
2023/03/07 05:12:24;;;;;;;13.85;10.23;;;1.30;99.90;;;;;;5049745;28;20036;-74
2023/03/07 05:14:50;;;;;;;40.78;20.85;;;1.50;99.90;;;;;;5056517;28;20040;-74
2023/03/07 05:17:16;;;;;;;40.50;23.27;;;1.40;99.90;;;;;;5054243;28;20036;-73
2023/03/07 05:19:42;;;;;;;37.90;21.92;;;1.40;99.90;;;;;;5052112;28;20028;-73
2023/03/07 05:22:08;;;;;;;36.45;21.13;;;1.40;99.90;;;;;;5053486;28;20029;-73
2023/03/07 05:24:34;;;;;;;29.50;20.63;;;1.50;99.90;;;;;;5053056;28;20017;-73
2023/03/07 05:27:00;;;;;;;35.45;24.20;;;1.50;99.90;;;;;;5057229;28;20039;-74
2023/03/07 05:29:26;;;;;;;29.98;22.20;;;1.40;99.90;;;;;;5049543;28;20029;-74
2023/03/07 05:31:52;;;;;;;27.13;16.67;;;1.50;99.90;;;;;;5044741;28;20374;-74
2023/03/07 05:34:18;;;;;;;37.15;22.42;;;1.50;99.90;;;;;;5048281;28;20321;-72
2023/03/07 05:36:44;;;;;;;20.80;14.35;;;1.50;99.90;;;;;;5046641;28;20041;-72
2023/03/07 05:39:09;;;;;;;12.43;9.82;;;1.50;99.90;;;;;;5050661;28;20047;-72
2023/03/07 05:41:35;;;;;;;11.50;9.73;;;1.50;99.90;;;;;;5051631;28;20089;-73
2023/03/07 05:44:02;;;;;;;12.57;10.35;;;1.50;99.90;;;;;;5040527;28;20040;-71
2023/03/07 05:46:28;;;;;;;13.60;10.23;;;1.60;99.90;;;;;;5036140;28;20608;-71
2023/03/07 05:48:54;;;;;;;16.38;11.38;;;1.60;99.90;;;;;;5052764;28;20389;-71
2023/03/07 05:51:20;;;;;;;18.38;13.05;;;1.50;99.90;;;;;;5050909;28;20036;-72
2023/03/07 05:53:45;;;;;;;17.38;12.65;;;1.50;99.90;;;;;;5044787;28;20423;-72
2023/03/07 05:56:11;;;;;;;20.05;13.02;;;1.60;99.90;;;;;;5054135;28;20083;-72
2023/03/07 05:58:37;;;;;;;14.95;11.60;;;1.60;99.90;;;;;;5043428;28;20036;-72
2023/03/07 06:01:03;;;;;;;13.40;10.63;;;1.60;99.90;;;;;;5051605;28;20071;-71
2023/03/07 06:03:30;;;;;;;12.75;10.20;;;1.60;99.90;;;;;;5045682;28;20098;-73
2023/03/07 06:05:56;;;;;;;12.10;9.57;;;1.60;99.90;;;;;;5035616;28;20477;-72
2023/03/07 06:08:21;;;;;;;14.15;9.95;;;1.70;99.90;;;;;;5054075;28;20047;-71
2023/03/07 06:10:51;;;;;;;14.77;9.77;;;1.70;99.90;;;;;;5049749;28;20028;-70
2023/03/07 06:13:19;;;;;;;14.10;10.30;;;1.70;99.90;;;;;;5054242;28;20032;-71
2023/03/07 06:15:48;;;;;;;12.95;9.95;;;1.70;99.90;;;;;;5058329;28;20062;-70
2023/03/07 06:18:14;;;;;;;13.05;10.27;;;1.70;99.90;;;;;;5050379;28;20076;-70
2023/03/07 06:20:39;;;;;;;10.95;8.70;;;1.80;99.90;;;;;;5053832;28;20585;-71
2023/03/07 06:23:05;;;;;;;11.57;8.90;;;1.80;99.90;;;;;;5031835;28;20037;-68
2023/03/07 06:25:31;;;;;;;12.25;10.02;;;1.90;99.90;;;;;;5048151;28;20049;-68
2023/03/07 06:28:00;;;;;;;12.35;10.40;;;1.90;99.90;;;;;;5051788;28;20052;-68
2023/03/07 06:30:27;;;;;;;12.95;10.40;;;2.00;99.90;;;;;;5032856;28;20045;-69
2023/03/07 06:32:52;;;;;;;11.88;9.57;;;2.10;99.90;;;;;;5052845;28;20029;-69
2023/03/07 06:35:18;;;;;;;12.57;9.95;;;2.20;99.90;;;;;;5032518;28;20037;-71
2023/03/07 06:37:44;;;;;;;13.90;10.93;;;2.20;99.90;;;;;;5048869;28;20086;-73
2023/03/07 06:40:11;;;;;;;12.10;9.65;;;2.20;99.90;;;;;;5040151;28;20033;-72
2023/03/07 06:42:37;;;;;;;11.20;9.25;;;2.20;99.90;;;;;;5050313;28;20033;-72
2023/03/07 06:45:03;;;;;;;11.32;9.13;;;2.30;99.90;;;;;;5048823;28;20264;-82
2023/03/07 06:47:30;;;;;;;11.00;8.85;;;2.30;99.90;;;;;;5052685;28;20147;-80
2023/03/07 06:49:55;;;;;;;39.83;24.45;;;2.30;99.90;;;;;;5055945;28;20033;-83
2023/03/07 06:52:21;;;;;;;62.25;35.65;;;2.40;99.90;;;;;;5055939;28;20046;-85
2023/03/07 06:54:47;;;;;;;12.93;11.23;;;2.40;99.90;;;;;;5048255;28;20514;-86
2023/03/07 06:57:13;;;;;;;14.23;8.75;;;2.50;99.90;;;;;;5054634;28;20064;-85
2023/03/07 06:59:38;;;;;;;14.48;9.45;;;2.40;99.90;;;;;;5049362;28;20033;-85
2023/03/07 07:02:05;;;;;;;15.38;9.30;;;2.40;99.90;;;;;;5051171;28;20052;-84
2023/03/07 07:04:32;;;;;;;10.70;9.15;;;2.40;99.90;;;;;;5058364;28;20485;-85
2023/03/07 07:06:58;;;;;;;11.70;8.98;;;2.40;99.90;;;;;;5061563;28;20037;-85
2023/03/07 07:09:24;;;;;;;16.38;12.25;;;2.50;99.90;;;;;;5062348;28;20041;-86
2023/03/07 07:11:49;;;;;;;36.65;21.80;;;2.50;99.90;;;;;;5063724;28;20046;-86
2023/03/07 07:14:15;;;;;;;25.25;17.98;;;2.40;99.90;;;;;;5063897;28;20568;-86
2023/03/07 07:16:41;;;;;;;14.02;10.85;;;2.30;99.90;;;;;;5069004;28;20048;-86
2023/03/07 07:19:08;;;;;;;20.13;15.00;;;2.40;99.90;;;;;;5046864;28;20073;-85
2023/03/07 07:21:34;;;;;;;15.00;11.07;;;2.50;99.90;;;;;;5063120;28;20040;-86
2023/03/07 07:23:59;;;;;;;32.25;23.60;;;2.60;99.90;;;;;;5060749;28;20037;-85
2023/03/07 07:26:25;;;;;;;17.80;13.90;;;2.70;99.90;;;;;;5045778;28;20083;-86
2023/03/07 07:28:51;;;;;;;19.63;13.20;;;2.70;99.90;;;;;;5052966;28;20142;-86
2023/03/07 07:31:17;;;;;;;22.05;15.43;;;2.80;99.90;;;;;;5046186;28;20032;-87
2023/03/07 07:33:42;;;;;;;20.83;12.73;;;2.90;99.90;;;;;;5061754;28;20033;-87
2023/03/07 07:36:08;;;;;;;15.75;12.02;;;2.90;99.90;;;;;;5054915;28;20032;-88
2023/03/07 07:38:35;;;;;;;18.75;13.25;;;3.00;99.90;;;;;;5041111;28;20496;-85
2023/03/07 07:41:04;;;;;;;30.25;21.05;;;3.00;99.90;;;;;;5064464;28;20047;-85
2023/03/07 07:43:29;;;;;;;34.10;21.98;;;3.00;99.90;;;;;;5063207;28;20109;-84
2023/03/07 07:45:55;;;;;;;23.20;17.10;;;3.00;99.90;;;;;;5054826;28;20044;-84
2023/03/07 07:48:21;;;;;;;21.65;16.33;;;3.00;99.90;;;;;;5059179;28;20060;-84
2023/03/07 07:50:46;;;;;;;25.33;17.00;;;3.10;99.90;;;;;;5046947;28;20040;-83
2023/03/07 07:53:13;;;;;;;26.92;18.58;;;3.20;99.90;;;;;;5047821;28;20039;-82
2023/03/07 07:55:38;;;;;;;28.05;19.70;;;3.20;99.90;;;;;;5044748;28;20051;-81
2023/03/07 07:58:04;;;;;;;26.35;19.10;;;3.30;99.90;;;;;;5047027;28;20443;-72
2023/03/07 08:00:30;;;;;;;29.23;20.92;;;3.40;99.90;;;;;;5038881;28;20404;-71
2023/03/07 08:02:58;;;;;;;26.05;19.35;;;3.50;99.90;;;;;;5042105;28;20036;-72
2023/03/07 08:05:24;;;;;;;32.45;22.35;;;3.60;99.90;;;;;;5027887;28;20497;-72
2023/03/07 08:07:49;;;;;;;28.38;18.08;;;3.60;99.90;;;;;;5051795;28;20051;-72
2023/03/07 08:10:16;;;;;;;26.00;17.80;;;3.70;99.90;;;;;;5053846;28;20848;-72
2023/03/07 08:12:50;;;;;;;29.75;20.52;;;3.80;99.90;;;;;;5053008;28;20041;-72
2023/03/07 08:15:16;;;;;;;33.60;20.67;;;3.90;99.90;;;;;;5047716;28;20044;-72
2023/03/07 08:17:43;;;;;;;24.85;18.73;;;4.00;99.90;;;;;;5040516;28;20135;-72
2023/03/07 08:20:09;;;;;;;30.38;19.98;;;3.90;99.90;;;;;;5034881;28;20404;-72
2023/03/07 08:22:36;;;;;;;27.35;19.70;;;3.90;99.90;;;;;;5035830;28;20024;-72
2023/03/07 08:25:05;;;;;;;27.77;20.58;;;4.00;99.90;;;;;;5043256;28;20040;-72
2023/03/07 08:27:31;;;;;;;48.63;34.47;;;4.00;99.90;;;;;;5033366;28;20037;-71
2023/03/07 08:29:57;;;;;;;53.08;35.88;;;4.10;99.90;;;;;;5043548;28;20037;-73
2023/03/07 08:32:23;;;;;;;32.88;25.58;;;4.30;99.90;;;;;;5026440;28;20079;-72
2023/03/07 08:34:49;;;;;;;32.60;23.42;;;4.50;99.90;;;;;;5048421;28;20059;-81
2023/03/07 08:37:15;;;;;;;38.65;27.38;;;4.70;99.90;;;;;;5038507;28;20445;-82
2023/03/07 08:39:41;;;;;;;79.20;50.03;;;4.80;99.90;;;;;;5026152;28;20466;-81
2023/03/07 08:42:07;;;;;;;73.78;50.53;;;5.00;99.90;;;;;;5041956;28;20029;-80
2023/03/07 08:44:32;;;;;;;41.83;30.20;;;5.10;99.90;;;;;;5040644;28;20683;-80
2023/03/07 08:46:58;;;;;;;28.90;19.58;;;5.20;99.90;;;;;;5030016;28;20044;-81
2023/03/07 08:49:24;;;;;;;26.55;17.42;;;5.30;99.90;;;;;;5020573;28;20036;-82
2023/03/07 08:51:50;;;;;;;23.25;16.15;;;5.30;99.90;;;;;;5030860;28;20036;-78
2023/03/07 08:54:15;;;;;;;16.65;12.02;;;5.40;99.90;;;;;;5053225;28;20093;-79
2023/03/07 08:56:41;;;;;;;17.45;10.52;;;5.40;99.90;;;;;;5050618;28;20025;-80
2023/03/07 08:59:07;;;;;;;16.63;11.15;;;5.50;99.90;;;;;;5045599;28;20355;-81
2023/03/07 09:01:32;;;;;;;16.80;11.18;;;5.50;99.90;;;;;;5037653;28;20025;-79
2023/03/07 09:03:58;;;;;;;15.57;11.40;;;5.60;99.90;;;;;;5048866;28;20976;-80
2023/03/07 09:06:24;;;;;;;17.45;10.90;;;5.70;99.90;;;;;;5047311;28;20033;-80
2023/03/07 09:08:50;;;;;;;14.73;10.38;;;5.80;99.90;;;;;;5040325;28;20442;-70
2023/03/07 09:11:18;;;;;;;15.65;10.15;;;5.90;99.90;;;;;;5044794;28;20039;-74
2023/03/07 09:13:43;;;;;;;12.73;10.07;;;5.90;99.90;;;;;;5042814;28;20039;-74
2023/03/07 09:16:09;;;;;;;13.45;9.40;;;5.90;99.90;;;;;;5040876;28;20033;-74
2023/03/07 09:18:35;;;;;;;12.27;9.43;;;6.00;99.90;;;;;;5038970;28;20119;-74
2023/03/07 09:21:03;;;;;;;15.57;9.00;;;6.10;99.90;;;;;;5032703;28;20029;-74
2023/03/07 09:23:29;;;;;;;12.20;9.13;;;6.10;99.90;;;;;;5034237;28;20045;-74
2023/03/07 09:25:58;;;;;;;13.07;9.07;;;6.20;99.90;;;;;;5049012;28;20588;-74
2023/03/07 09:28:24;;;;;;;16.23;9.30;;;6.30;99.90;;;;;;5047672;28;20039;-80
2023/03/07 09:30:49;;;;;;;14.10;9.10;;;6.30;99.90;;;;;;5039439;28;20033;-81
2023/03/07 09:33:15;;;;;;;12.13;9.18;;;6.40;99.90;;;;;;5041493;28;20119;-81
2023/03/07 09:35:41;;;;;;;15.20;10.05;;;6.40;99.90;;;;;;5032903;28;20113;-81
2023/03/07 09:38:07;;;;;;;18.38;10.10;;;6.40;99.90;;;;;;5030755;28;20052;-75
2023/03/07 09:40:33;;;;;;;15.80;10.20;;;6.50;99.90;;;;;;5047110;28;20028;-78
2023/03/07 09:43:04;;;;;;;15.27;10.07;;;6.50;99.90;;;;;;5025464;28;20353;-81
2023/03/07 09:45:30;;;;;;;16.20;10.18;;;6.50;99.90;;;;;;5037268;28;20032;-81
2023/03/07 09:47:59;;;;;;;14.73;9.93;;;6.60;99.90;;;;;;5037072;28;20047;-81
2023/03/07 09:50:53;;;;;;;16.48;10.77;;;6.60;99.90;;;;;;5037456;28;20102;-81
2023/03/07 09:53:36;;;;;;;14.85;11.20;;;6.70;99.90;;;;;;5038610;28;20041;-81
2023/03/07 09:56:05;;;;;;;14.93;9.65;;;6.80;99.90;;;;;;5031193;28;20350;-81
2023/03/07 09:58:32;;;;;;;14.85;9.95;;;6.80;99.90;;;;;;5021482;28;20154;-81
2023/03/07 10:01:00;;;;;;;12.63;9.48;;;6.80;99.90;;;;;;5048709;28;20029;-81
2023/03/07 10:03:34;;;;;;;12.40;9.60;;;6.80;99.90;;;;;;5047624;28;20071;-82
2023/03/07 10:06:23;;;;;;;14.85;10.55;;;6.90;99.90;;;;;;5041748;28;21873;-73
2023/03/07 10:08:50;;;;;;;15.88;9.63;;;6.90;99.90;;;;;;5033933;28;20564;-73
2023/03/07 10:11:42;;;;;;;13.57;9.45;;;6.80;99.90;;;;;;5043305;28;20076;-73
2023/03/07 10:14:50;;;;;;;19.40;13.15;;;6.90;99.90;;;;;;5019012;28;20769;-72
2023/03/07 10:17:51;;;;;;;23.50;17.58;;;7.00;99.90;;;;;;4978096;28;20036;-73
2023/03/07 10:20:48;;;;;;;23.95;17.10;;;7.20;99.90;;;;;;4980055;28;20105;-73
2023/03/07 10:23:27;;;;;;;16.52;12.27;;;7.30;99.90;;;;;;4984312;28;20833;-66
2023/03/07 10:26:05;;;;;;;27.83;18.52;;;7.40;99.90;;;;;;5051155;28;20104;-66
2023/03/07 10:28:32;;;;;;;18.08;11.20;;;7.40;99.90;;;;;;5047705;28;20471;-66
2023/03/07 10:31:09;;;;;;;18.00;11.70;;;7.50;99.90;;;;;;5049032;28;20040;-66
2023/03/07 10:33:36;;;;;;;12.43;8.85;;;7.40;99.90;;;;;;5054591;28;20032;-67
2023/03/07 10:36:32;;;;;;;13.70;9.77;;;7.30;99.90;;;;;;5049953;28;20143;-67
2023/03/07 10:39:17;;;;;;;23.25;18.08;;;7.30;99.90;;;;;;5054913;28;20048;-66
2023/03/07 10:41:42;;;;;;;17.73;13.05;;;7.40;99.90;;;;;;5042752;28;20032;-66
2023/03/07 10:44:17;;;;;;;11.88;8.35;;;7.50;99.90;;;;;;5036694;28;20086;-66
2023/03/07 10:46:43;;;;;;;39.42;24.38;;;7.60;99.90;;;;;;5050373;28;20036;-66
2023/03/07 10:49:19;;;;;;;24.98;17.92;;;7.60;99.90;;;;;;5049364;28;20108;-66
2023/03/07 10:52:05;;;;;;;14.00;8.77;;;7.70;99.90;;;;;;5050061;28;20086;-66
2023/03/07 10:54:36;;;;;;;9.13;6.13;;;7.70;99.90;;;;;;5053981;28;20214;-66
2023/03/07 10:57:16;;;;;;;9.57;6.20;;;7.70;99.90;;;;;;5047099;28;20040;-65
2023/03/07 10:59:47;;;;;;;8.20;6.43;;;7.60;99.90;;;;;;5049268;28;20547;-66
2023/03/07 11:02:35;;;;;;;8.27;5.28;;;7.60;99.90;;;;;;5053171;28;20336;-64
2023/03/07 11:05:16;;;;;;;6.65;4.57;;;7.50;99.90;;;;;;5041342;28;20453;-66
2023/03/07 11:07:42;;;;;;;7.20;5.43;;;7.40;99.90;;;;;;5052187;28;20051;-66
2023/03/07 11:10:37;;;;;;;8.85;6.63;;;7.40;99.90;;;;;;5039655;28;20040;-66
2023/03/07 11:13:14;;;;;;;11.80;7.68;;;7.30;99.90;;;;;;5044214;28;20083;-66
2023/03/07 11:15:40;;;;;;;8.98;6.47;;;7.30;99.90;;;;;;5019955;28;20063;-66
2023/03/07 11:18:24;;;;;;;13.82;7.85;;;7.40;99.90;;;;;;5048358;28;20865;-66
2023/03/07 11:20:50;;;;;;;7.25;5.70;;;7.40;99.90;;;;;;5050695;28;20048;-66
2023/03/07 11:23:16;;;;;;;9.93;6.78;;;7.40;99.90;;;;;;5053258;28;20040;-67
2023/03/07 11:25:42;;;;;;;17.70;12.40;;;7.40;99.90;;;;;;5043597;28;20056;-66
2023/03/07 11:28:30;;;;;;;15.27;11.95;;;7.60;99.90;;;;;;5047345;28;20119;-66
2023/03/07 11:31:08;;;;;;;23.80;15.20;;;7.70;99.90;;;;;;5044510;28;20552;-66
2023/03/07 11:33:36;;;;;;;10.25;8.00;;;7.80;99.90;;;;;;5042739;28;20505;-66
2023/03/07 11:36:14;;;;;;;23.33;12.18;;;7.80;99.90;;;;;;5050006;28;20322;-66
2023/03/07 11:39:25;;;;;;;18.63;13.30;;;7.70;99.90;;;;;;5046315;28;20170;-66
2023/03/07 11:42:07;;;;;;;24.92;14.77;;;7.70;99.90;;;;;;5024603;28;20041;-66
2023/03/07 11:44:44;;;;;;;;;;;7.80;99.90;;;;;;5050652;28;20166;-66
2023/03/07 11:47:27;;;;;;;13.52;8.93;;;7.90;99.90;;;;;;5054299;28;19936;-66
2023/03/07 11:50:12;;;;;;;38.80;18.15;;;7.90;99.90;;;;;;5051711;28;20036;-66
2023/03/07 11:52:44;;;;;;;16.85;10.85;;;7.90;99.90;;;;;;5038226;28;20722;-66
2023/03/07 11:55:28;;;;;;;15.57;11.02;;;7.90;99.90;;;;;;5046744;28;20508;-66
2023/03/07 11:58:09;;;;;;;30.88;20.45;;;8.00;99.90;;;;;;5048309;28;20048;-66
2023/03/07 12:00:44;;;;;;;16.88;13.18;;;8.00;99.90;;;;;;5050076;28;20041;-66
2023/03/07 12:03:09;;;;;;;11.38;8.65;;;8.10;99.90;;;;;;5032906;28;20036;-67
2023/03/07 12:05:50;;;;;;;18.77;13.07;;;8.10;99.90;;;;;;5048371;28;20032;-66
2023/03/07 12:08:25;;;;;;;21.40;15.63;;;8.20;99.90;;;;;;5045423;28;20040;-67
2023/03/07 12:10:56;;;;;;;13.63;11.52;;;8.30;99.90;;;;;;5055831;28;20032;-67
2023/03/07 12:13:42;;;;;;;9.65;7.55;;;8.40;99.90;;;;;;5053110;28;20104;-66
2023/03/07 12:16:34;;;;;;;17.40;12.50;;;8.50;99.70;;;;;;5051663;28;20028;-66
2023/03/07 12:19:47;;;;;;;23.92;17.45;;;8.50;99.90;;;;;;5049373;28;20045;-66
2023/03/07 12:22:26;;;;;;;25.55;16.52;;;8.70;99.90;;;;;;5042251;28;20079;-66
2023/03/07 12:25:01;;;;;;;12.63;9.45;;;8.80;99.40;;;;;;5045407;28;20932;-66
2023/03/07 12:27:51;;;;;;;32.63;20.30;;;8.80;99.40;;;;;;5049499;28;20040;-64
2023/03/07 12:30:24;;;;;;;16.85;10.05;;;8.90;98.90;;;;;;5038629;28;20050;-64
2023/03/07 12:32:50;;;;;;;14.20;10.05;;;9.00;98.30;;;;;;5052389;28;20044;-64
2023/03/07 12:35:40;;;;;;;10.35;7.72;;;8.90;99.10;;;;;;5043961;28;20525;-64
2023/03/07 12:38:24;;;;;;;13.63;9.18;;;9.00;98.80;;;;;;5048211;28;20041;-64
2023/03/07 12:41:00;;;;;;;13.82;8.52;;;9.00;98.70;;;;;;5052196;28;20033;-64
2023/03/07 12:43:36;;;;;;;16.95;11.57;;;9.10;98.70;;;;;;5035605;28;20171;-64
2023/03/07 12:46:36;;;;;;;12.85;8.68;;;9.10;97.90;;;;;;5048598;28;20037;-64
2023/03/07 12:49:15;;;;;;;12.73;8.80;;;9.20;97.90;;;;;;5052954;28;20079;-64
2023/03/07 12:51:56;;;;;;;12.57;9.48;;;9.10;97.90;;;;;;5030099;28;20110;-65